sensor_id;sensor_type;location;lat;lon;timestamp;P1;durP1;ratioP1;P2;durP2;ratioP2
8337;SDS011;4206;48.634;9.516;2023-08-31T00:02:01;4.30;;;2.37;;
8337;SDS011;4206;48.634;9.516;2023-08-31T00:04:30;4.00;;;2.60;;
8337;SDS011;4206;48.634;9.516;2023-08-31T00:06:57;10.50;;;2.87;;
8337;SDS011;4206;48.634;9.516;2023-08-31T00:09:24;2.83;;;2.50;;
8337;SDS011;4206;48.634;9.516;2023-08-31T00:11:52;2.77;;;2.50;;
8337;SDS011;4206;48.634;9.516;2023-08-31T00:14:19;5.90;;;2.87;;
8337;SDS011;4206;48.634;9.516;2023-08-31T00:16:48;3.10;;;2.37;;
8337;SDS011;4206;48.634;9.516;2023-08-31T00:19:16;2.90;;;2.60;;
8337;SDS011;4206;48.634;9.516;2023-08-31T00:21:43;2.83;;;2.50;;
8337;SDS011;4206;48.634;9.516;2023-08-31T00:24:11;5.80;;;2.63;;
8337;SDS011;4206;48.634;9.516;2023-08-31T00:26:39;4.77;;;2.60;;
8337;SDS011;4206;48.634;9.516;2023-08-31T00:29:08;3.10;;;2.50;;
8337;SDS011;4206;48.634;9.516;2023-08-31T00:31:37;5.83;;;2.47;;
8337;SDS011;4206;48.634;9.516;2023-08-31T00:34:04;6.40;;;2.07;;
8337;SDS011;4206;48.634;9.516;2023-08-31T00:36:33;6.27;;;1.97;;
8337;SDS011;4206;48.634;9.516;2023-08-31T00:39:03;6.07;;;2.33;;
8337;SDS011;4206;48.634;9.516;2023-08-31T00:41:32;5.90;;;2.70;;
8337;SDS011;4206;48.634;9.516;2023-08-31T00:44:00;4.33;;;2.27;;
8337;SDS011;4206;48.634;9.516;2023-08-31T00:46:28;7.73;;;2.47;;
8337;SDS011;4206;48.634;9.516;2023-08-31T00:48:55;7.20;;;2.57;;
8337;SDS011;4206;48.634;9.516;2023-08-31T00:51:24;5.87;;;2.40;;
8337;SDS011;4206;48.634;9.516;2023-08-31T00:53:52;7.07;;;2.40;;
8337;SDS011;4206;48.634;9.516;2023-08-31T00:56:21;5.27;;;2.70;;
8337;SDS011;4206;48.634;9.516;2023-08-31T00:58:48;2.90;;;2.33;;
8337;SDS011;4206;48.634;9.516;2023-08-31T01:01:22;7.13;;;2.30;;
8337;SDS011;4206;48.634;9.516;2023-08-31T01:08:55;7.57;;;2.73;;
8337;SDS011;4206;48.634;9.516;2023-08-31T01:14:11;4.70;;;2.53;;
8337;SDS011;4206;48.634;9.516;2023-08-31T01:16:39;5.90;;;2.70;;
8337;SDS011;4206;48.634;9.516;2023-08-31T01:19:10;2.30;;;2.10;;
8337;SDS011;4206;48.634;9.516;2023-08-31T01:21:41;2.77;;;2.47;;
8337;SDS011;4206;48.634;9.516;2023-08-31T01:24:09;5.60;;;2.80;;
8337;SDS011;4206;48.634;9.516;2023-08-31T01:26:37;2.40;;;2.10;;
8337;SDS011;4206;48.634;9.516;2023-08-31T01:29:05;6.63;;;2.83;;
8337;SDS011;4206;48.634;9.516;2023-08-31T01:31:32;5.40;;;3.07;;
8337;SDS011;4206;48.634;9.516;2023-08-31T01:33:59;3.40;;;2.67;;
8337;SDS011;4206;48.634;9.516;2023-08-31T01:36:29;5.00;;;2.93;;
8337;SDS011;4206;48.634;9.516;2023-08-31T01:38:59;3.27;;;2.47;;
8337;SDS011;4206;48.634;9.516;2023-08-31T01:41:29;4.30;;;2.70;;
8337;SDS011;4206;48.634;9.516;2023-08-31T01:43:58;4.27;;;2.77;;
8337;SDS011;4206;48.634;9.516;2023-08-31T01:46:25;4.23;;;2.77;;
8337;SDS011;4206;48.634;9.516;2023-08-31T01:48:53;5.23;;;3.20;;
8337;SDS011;4206;48.634;9.516;2023-08-31T01:51:20;3.03;;;2.50;;
8337;SDS011;4206;48.634;9.516;2023-08-31T01:53:47;3.40;;;2.27;;
8337;SDS011;4206;48.634;9.516;2023-08-31T01:56:14;4.13;;;3.10;;
8337;SDS011;4206;48.634;9.516;2023-08-31T01:58:42;4.50;;;3.03;;
8337;SDS011;4206;48.634;9.516;2023-08-31T02:01:09;3.80;;;2.93;;
8337;SDS011;4206;48.634;9.516;2023-08-31T02:03:36;4.33;;;3.13;;
8337;SDS011;4206;48.634;9.516;2023-08-31T02:06:04;4.63;;;3.03;;
8337;SDS011;4206;48.634;9.516;2023-08-31T02:08:31;6.13;;;3.30;;
8337;SDS011;4206;48.634;9.516;2023-08-31T02:10:59;4.47;;;3.10;;
8337;SDS011;4206;48.634;9.516;2023-08-31T02:13:26;5.80;;;3.10;;
8337;SDS011;4206;48.634;9.516;2023-08-31T02:15:54;5.40;;;2.90;;
8337;SDS011;4206;48.634;9.516;2023-08-31T02:18:21;4.13;;;2.80;;
8337;SDS011;4206;48.634;9.516;2023-08-31T02:20:51;5.60;;;2.63;;
8337;SDS011;4206;48.634;9.516;2023-08-31T02:23:19;6.10;;;3.10;;
8337;SDS011;4206;48.634;9.516;2023-08-31T02:25:46;3.07;;;2.70;;
8337;SDS011;4206;48.634;9.516;2023-08-31T02:28:14;3.43;;;3.07;;
8337;SDS011;4206;48.634;9.516;2023-08-31T02:30:43;5.23;;;2.77;;
8337;SDS011;4206;48.634;9.516;2023-08-31T02:33:10;5.43;;;2.77;;
8337;SDS011;4206;48.634;9.516;2023-08-31T02:35:38;6.80;;;3.00;;
8337;SDS011;4206;48.634;9.516;2023-08-31T02:38:06;4.70;;;3.10;;
8337;SDS011;4206;48.634;9.516;2023-08-31T02:40:34;8.00;;;3.27;;
8337;SDS011;4206;48.634;9.516;2023-08-31T02:43:01;8.03;;;2.87;;
8337;SDS011;4206;48.634;9.516;2023-08-31T02:45:29;3.80;;;2.97;;
8337;SDS011;4206;48.634;9.516;2023-08-31T02:47:56;3.03;;;2.50;;
8337;SDS011;4206;48.634;9.516;2023-08-31T02:50:24;4.03;;;2.83;;
8337;SDS011;4206;48.634;9.516;2023-08-31T02:52:51;3.87;;;2.63;;
8337;SDS011;4206;48.634;9.516;2023-08-31T02:55:18;4.80;;;2.87;;
8337;SDS011;4206;48.634;9.516;2023-08-31T02:57:45;2.40;;;2.17;;
8337;SDS011;4206;48.634;9.516;2023-08-31T03:00:13;5.43;;;2.40;;
8337;SDS011;4206;48.634;9.516;2023-08-31T03:02:41;3.37;;;2.70;;
8337;SDS011;4206;48.634;9.516;2023-08-31T03:05:10;2.93;;;2.43;;
8337;SDS011;4206;48.634;9.516;2023-08-31T03:07:37;4.37;;;2.70;;
8337;SDS011;4206;48.634;9.516;2023-08-31T03:10:04;4.33;;;2.80;;
8337;SDS011;4206;48.634;9.516;2023-08-31T03:12:32;7.40;;;2.90;;
8337;SDS011;4206;48.634;9.516;2023-08-31T03:14:59;4.10;;;2.70;;
8337;SDS011;4206;48.634;9.516;2023-08-31T03:17:26;5.20;;;2.93;;
8337;SDS011;4206;48.634;9.516;2023-08-31T03:19:54;5.77;;;2.90;;
8337;SDS011;4206;48.634;9.516;2023-08-31T03:22:21;3.77;;;2.30;;
8337;SDS011;4206;48.634;9.516;2023-08-31T03:24:48;6.60;;;2.87;;
8337;SDS011;4206;48.634;9.516;2023-08-31T03:27:15;3.77;;;3.20;;
8337;SDS011;4206;48.634;9.516;2023-08-31T03:29:43;6.77;;;2.83;;
8337;SDS011;4206;48.634;9.516;2023-08-31T03:32:10;4.87;;;2.43;;
8337;SDS011;4206;48.634;9.516;2023-08-31T03:34:37;3.80;;;2.63;;
8337;SDS011;4206;48.634;9.516;2023-08-31T03:37:04;5.00;;;3.20;;
8337;SDS011;4206;48.634;9.516;2023-08-31T03:39:32;8.90;;;3.53;;
8337;SDS011;4206;48.634;9.516;2023-08-31T03:41:59;5.93;;;3.13;;
8337;SDS011;4206;48.634;9.516;2023-08-31T03:44:26;4.50;;;2.70;;
8337;SDS011;4206;48.634;9.516;2023-08-31T03:46:54;2.70;;;2.43;;
8337;SDS011;4206;48.634;9.516;2023-08-31T03:49:21;8.10;;;3.67;;
8337;SDS011;4206;48.634;9.516;2023-08-31T03:51:48;11.17;;;3.40;;
8337;SDS011;4206;48.634;9.516;2023-08-31T03:54:15;7.03;;;3.53;;
8337;SDS011;4206;48.634;9.516;2023-08-31T03:56:43;3.97;;;2.93;;
8337;SDS011;4206;48.634;9.516;2023-08-31T03:59:10;10.40;;;4.00;;
8337;SDS011;4206;48.634;9.516;2023-08-31T04:01:38;5.60;;;3.77;;
8337;SDS011;4206;48.634;9.516;2023-08-31T04:04:06;8.07;;;3.37;;
8337;SDS011;4206;48.634;9.516;2023-08-31T04:06:33;5.43;;;3.10;;
8337;SDS011;4206;48.634;9.516;2023-08-31T04:09:00;5.43;;;3.30;;
8337;SDS011;4206;48.634;9.516;2023-08-31T04:11:28;3.70;;;3.07;;
8337;SDS011;4206;48.634;9.516;2023-08-31T04:13:56;6.40;;;4.00;;
8337;SDS011;4206;48.634;9.516;2023-08-31T04:16:23;7.80;;;2.90;;
8337;SDS011;4206;48.634;9.516;2023-08-31T04:18:50;7.33;;;3.43;;
8337;SDS011;4206;48.634;9.516;2023-08-31T04:21:18;7.53;;;3.87;;
8337;SDS011;4206;48.634;9.516;2023-08-31T04:23:45;5.73;;;3.73;;
8337;SDS011;4206;48.634;9.516;2023-08-31T04:26:13;4.80;;;3.03;;
8337;SDS011;4206;48.634;9.516;2023-08-31T04:28:40;4.00;;;2.80;;
8337;SDS011;4206;48.634;9.516;2023-08-31T04:31:08;5.80;;;3.40;;
8337;SDS011;4206;48.634;9.516;2023-08-31T04:33:37;6.80;;;3.90;;
8337;SDS011;4206;48.634;9.516;2023-08-31T04:36:06;4.50;;;3.10;;
8337;SDS011;4206;48.634;9.516;2023-08-31T04:38:34;4.60;;;3.23;;
8337;SDS011;4206;48.634;9.516;2023-08-31T04:41:01;5.40;;;3.63;;
8337;SDS011;4206;48.634;9.516;2023-08-31T04:43:29;12.17;;;3.93;;
8337;SDS011;4206;48.634;9.516;2023-08-31T04:45:57;3.90;;;3.00;;
8337;SDS011;4206;48.634;9.516;2023-08-31T04:48:25;9.63;;;3.73;;
8337;SDS011;4206;48.634;9.516;2023-08-31T04:50:55;10.57;;;3.70;;
8337;SDS011;4206;48.634;9.516;2023-08-31T04:53:22;11.93;;;2.97;;
8337;SDS011;4206;48.634;9.516;2023-08-31T04:55:49;4.20;;;3.20;;
8337;SDS011;4206;48.634;9.516;2023-08-31T04:58:17;5.03;;;3.17;;
8337;SDS011;4206;48.634;9.516;2023-08-31T05:00:44;3.90;;;2.90;;
8337;SDS011;4206;48.634;9.516;2023-08-31T05:03:11;5.63;;;2.90;;
8337;SDS011;4206;48.634;9.516;2023-08-31T05:05:39;6.73;;;2.40;;
8337;SDS011;4206;48.634;9.516;2023-08-31T05:08:08;4.30;;;2.97;;
8337;SDS011;4206;48.634;9.516;2023-08-31T05:10:35;4.67;;;3.37;;
8337;SDS011;4206;48.634;9.516;2023-08-31T05:13:03;5.77;;;2.87;;
8337;SDS011;4206;48.634;9.516;2023-08-31T05:15:30;4.00;;;2.77;;
8337;SDS011;4206;48.634;9.516;2023-08-31T05:18:00;6.10;;;3.53;;
8337;SDS011;4206;48.634;9.516;2023-08-31T05:20:27;6.80;;;3.20;;
8337;SDS011;4206;48.634;9.516;2023-08-31T05:22:54;3.47;;;2.90;;
8337;SDS011;4206;48.634;9.516;2023-08-31T05:25:22;4.17;;;3.13;;
8337;SDS011;4206;48.634;9.516;2023-08-31T05:27:52;5.80;;;3.33;;
8337;SDS011;4206;48.634;9.516;2023-08-31T05:30:20;6.10;;;3.47;;
8337;SDS011;4206;48.634;9.516;2023-08-31T05:32:47;10.20;;;2.97;;
8337;SDS011;4206;48.634;9.516;2023-08-31T05:35:14;8.60;;;3.40;;
8337;SDS011;4206;48.634;9.516;2023-08-31T05:37:42;12.20;;;3.23;;
8337;SDS011;4206;48.634;9.516;2023-08-31T05:40:09;4.30;;;3.67;;
8337;SDS011;4206;48.634;9.516;2023-08-31T05:42:37;7.10;;;3.97;;
8337;SDS011;4206;48.634;9.516;2023-08-31T05:45:04;6.87;;;3.77;;
8337;SDS011;4206;48.634;9.516;2023-08-31T05:47:31;6.00;;;3.03;;
8337;SDS011;4206;48.634;9.516;2023-08-31T05:49:59;8.03;;;3.67;;
8337;SDS011;4206;48.634;9.516;2023-08-31T05:52:26;3.83;;;3.40;;
8337;SDS011;4206;48.634;9.516;2023-08-31T05:54:53;3.97;;;2.80;;
8337;SDS011;4206;48.634;9.516;2023-08-31T05:57:21;4.23;;;2.80;;
8337;SDS011;4206;48.634;9.516;2023-08-31T05:59:49;7.70;;;3.47;;
8337;SDS011;4206;48.634;9.516;2023-08-31T06:02:16;7.90;;;3.40;;
8337;SDS011;4206;48.634;9.516;2023-08-31T06:04:43;6.03;;;2.97;;
8337;SDS011;4206;48.634;9.516;2023-08-31T06:07:11;3.53;;;2.60;;
8337;SDS011;4206;48.634;9.516;2023-08-31T06:09:38;3.93;;;2.60;;
8337;SDS011;4206;48.634;9.516;2023-08-31T06:12:06;4.27;;;3.00;;
8337;SDS011;4206;48.634;9.516;2023-08-31T06:14:33;10.93;;;2.80;;
8337;SDS011;4206;48.634;9.516;2023-08-31T06:17:00;7.30;;;3.20;;
8337;SDS011;4206;48.634;9.516;2023-08-31T06:19:28;4.87;;;2.43;;
8337;SDS011;4206;48.634;9.516;2023-08-31T06:21:55;8.83;;;3.37;;
8337;SDS011;4206;48.634;9.516;2023-08-31T06:24:23;11.20;;;2.80;;
8337;SDS011;4206;48.634;9.516;2023-08-31T06:26:50;7.37;;;2.40;;
8337;SDS011;4206;48.634;9.516;2023-08-31T06:29:18;3.63;;;2.33;;
8337;SDS011;4206;48.634;9.516;2023-08-31T06:31:45;4.97;;;2.70;;
8337;SDS011;4206;48.634;9.516;2023-08-31T06:34:13;3.03;;;2.50;;
8337;SDS011;4206;48.634;9.516;2023-08-31T06:36:40;7.20;;;2.80;;
8337;SDS011;4206;48.634;9.516;2023-08-31T06:39:07;10.80;;;2.70;;
8337;SDS011;4206;48.634;9.516;2023-08-31T06:41:35;3.90;;;2.63;;
8337;SDS011;4206;48.634;9.516;2023-08-31T06:44:02;9.00;;;2.67;;
8337;SDS011;4206;48.634;9.516;2023-08-31T06:46:30;3.47;;;2.70;;
8337;SDS011;4206;48.634;9.516;2023-08-31T06:49:04;4.10;;;2.07;;
8337;SDS011;4206;48.634;9.516;2023-08-31T06:51:32;9.13;;;2.67;;
8337;SDS011;4206;48.634;9.516;2023-08-31T06:54:00;3.77;;;2.17;;
8337;SDS011;4206;48.634;9.516;2023-08-31T06:56:33;5.10;;;2.30;;
8337;SDS011;4206;48.634;9.516;2023-08-31T06:59:01;2.23;;;1.60;;
8337;SDS011;4206;48.634;9.516;2023-08-31T07:01:29;3.97;;;2.20;;
8337;SDS011;4206;48.634;9.516;2023-08-31T07:03:56;6.80;;;1.87;;
8337;SDS011;4206;48.634;9.516;2023-08-31T07:06:23;4.23;;;2.10;;
8337;SDS011;4206;48.634;9.516;2023-08-31T07:08:51;5.60;;;2.20;;
8337;SDS011;4206;48.634;9.516;2023-08-31T07:11:18;4.33;;;1.47;;
8337;SDS011;4206;48.634;9.516;2023-08-31T07:13:45;3.07;;;1.80;;
8337;SDS011;4206;48.634;9.516;2023-08-31T07:16:13;4.83;;;2.10;;
8337;SDS011;4206;48.634;9.516;2023-08-31T07:18:40;7.03;;;2.50;;
8337;SDS011;4206;48.634;9.516;2023-08-31T07:21:07;5.97;;;1.90;;
8337;SDS011;4206;48.634;9.516;2023-08-31T07:23:37;3.80;;;2.20;;
8337;SDS011;4206;48.634;9.516;2023-08-31T07:26:04;2.70;;;1.57;;
8337;SDS011;4206;48.634;9.516;2023-08-31T07:28:31;4.37;;;1.80;;
8337;SDS011;4206;48.634;9.516;2023-08-31T07:33:30;5.57;;;1.43;;
8337;SDS011;4206;48.634;9.516;2023-08-31T07:35:58;3.07;;;1.50;;
8337;SDS011;4206;48.634;9.516;2023-08-31T07:38:26;2.97;;;1.70;;
8337;SDS011;4206;48.634;9.516;2023-08-31T07:40:54;3.50;;;1.70;;
8337;SDS011;4206;48.634;9.516;2023-08-31T07:43:21;3.00;;;1.47;;
8337;SDS011;4206;48.634;9.516;2023-08-31T07:45:49;4.67;;;1.87;;
8337;SDS011;4206;48.634;9.516;2023-08-31T07:48:16;4.60;;;1.60;;
8337;SDS011;4206;48.634;9.516;2023-08-31T07:50:43;2.50;;;1.60;;
8337;SDS011;4206;48.634;9.516;2023-08-31T07:53:11;5.30;;;2.40;;
8337;SDS011;4206;48.634;9.516;2023-08-31T07:55:39;4.93;;;2.00;;
8337;SDS011;4206;48.634;9.516;2023-08-31T07:58:06;3.17;;;1.67;;
8337;SDS011;4206;48.634;9.516;2023-08-31T08:00:34;6.00;;;1.50;;
8337;SDS011;4206;48.634;9.516;2023-08-31T08:03:01;5.77;;;1.67;;
8337;SDS011;4206;48.634;9.516;2023-08-31T08:05:29;8.87;;;2.00;;
8337;SDS011;4206;48.634;9.516;2023-08-31T08:07:56;5.23;;;1.60;;
8337;SDS011;4206;48.634;9.516;2023-08-31T08:10:23;3.00;;;1.40;;
8337;SDS011;4206;48.634;9.516;2023-08-31T08:12:50;5.63;;;1.43;;
8337;SDS011;4206;48.634;9.516;2023-08-31T08:15:17;4.50;;;1.70;;
8337;SDS011;4206;48.634;9.516;2023-08-31T08:17:44;5.40;;;1.60;;
8337;SDS011;4206;48.634;9.516;2023-08-31T08:20:11;6.20;;;1.70;;
8337;SDS011;4206;48.634;9.516;2023-08-31T08:22:39;2.13;;;1.10;;
8337;SDS011;4206;48.634;9.516;2023-08-31T08:25:06;4.43;;;1.40;;
8337;SDS011;4206;48.634;9.516;2023-08-31T08:27:33;3.27;;;1.57;;
8337;SDS011;4206;48.634;9.516;2023-08-31T08:30:03;1.60;;;1.50;;
8337;SDS011;4206;48.634;9.516;2023-08-31T08:32:32;6.17;;;1.80;;
8337;SDS011;4206;48.634;9.516;2023-08-31T08:35:00;4.70;;;1.70;;
8337;SDS011;4206;48.634;9.516;2023-08-31T08:37:28;4.23;;;1.27;;
8337;SDS011;4206;48.634;9.516;2023-08-31T08:39:55;3.30;;;1.50;;
8337;SDS011;4206;48.634;9.516;2023-08-31T08:42:24;5.40;;;2.10;;
8337;SDS011;4206;48.634;9.516;2023-08-31T08:44:51;4.33;;;1.53;;
8337;SDS011;4206;48.634;9.516;2023-08-31T08:47:19;2.03;;;1.30;;
8337;SDS011;4206;48.634;9.516;2023-08-31T08:49:47;4.57;;;1.60;;
8337;SDS011;4206;48.634;9.516;2023-08-31T08:52:15;3.07;;;1.40;;
8337;SDS011;4206;48.634;9.516;2023-08-31T08:54:43;7.10;;;1.80;;
8337;SDS011;4206;48.634;9.516;2023-08-31T08:57:11;5.77;;;1.63;;
8337;SDS011;4206;48.634;9.516;2023-08-31T08:59:38;2.60;;;1.57;;
8337;SDS011;4206;48.634;9.516;2023-08-31T09:02:07;4.70;;;1.23;;
8337;SDS011;4206;48.634;9.516;2023-08-31T09:04:35;4.70;;;1.37;;
8337;SDS011;4206;48.634;9.516;2023-08-31T09:07:02;6.50;;;1.47;;
8337;SDS011;4206;48.634;9.516;2023-08-31T09:09:30;3.30;;;1.40;;
8337;SDS011;4206;48.634;9.516;2023-08-31T09:12:06;2.90;;;1.30;;
8337;SDS011;4206;48.634;9.516;2023-08-31T09:14:34;3.77;;;1.80;;
8337;SDS011;4206;48.634;9.516;2023-08-31T09:17:01;2.13;;;1.40;;
8337;SDS011;4206;48.634;9.516;2023-08-31T09:19:29;5.87;;;1.50;;
8337;SDS011;4206;48.634;9.516;2023-08-31T09:21:57;5.90;;;1.70;;
8337;SDS011;4206;48.634;9.516;2023-08-31T09:24:24;7.90;;;1.57;;
8337;SDS011;4206;48.634;9.516;2023-08-31T09:26:53;2.03;;;1.57;;
8337;SDS011;4206;48.634;9.516;2023-08-31T09:29:21;3.20;;;1.50;;
8337;SDS011;4206;48.634;9.516;2023-08-31T09:31:48;3.53;;;1.57;;
8337;SDS011;4206;48.634;9.516;2023-08-31T09:34:16;3.27;;;1.67;;
8337;SDS011;4206;48.634;9.516;2023-08-31T09:36:44;5.53;;;1.80;;
8337;SDS011;4206;48.634;9.516;2023-08-31T09:39:14;4.00;;;1.60;;
8337;SDS011;4206;48.634;9.516;2023-08-31T09:44:25;3.67;;;1.20;;
8337;SDS011;4206;48.634;9.516;2023-08-31T09:46:53;5.00;;;1.90;;
8337;SDS011;4206;48.634;9.516;2023-08-31T09:49:21;2.37;;;1.47;;
8337;SDS011;4206;48.634;9.516;2023-08-31T09:51:49;3.43;;;1.67;;
8337;SDS011;4206;48.634;9.516;2023-08-31T09:54:18;4.13;;;1.83;;
8337;SDS011;4206;48.634;9.516;2023-08-31T09:56:46;7.70;;;1.43;;
8337;SDS011;4206;48.634;9.516;2023-08-31T09:59:14;6.60;;;1.53;;
8337;SDS011;4206;48.634;9.516;2023-08-31T10:01:43;3.43;;;1.60;;
8337;SDS011;4206;48.634;9.516;2023-08-31T10:04:11;4.70;;;1.67;;
8337;SDS011;4206;48.634;9.516;2023-08-31T10:06:39;2.70;;;1.40;;
8337;SDS011;4206;48.634;9.516;2023-08-31T10:09:07;7.03;;;1.97;;
8337;SDS011;4206;48.634;9.516;2023-08-31T10:11:38;4.43;;;1.43;;
8337;SDS011;4206;48.634;9.516;2023-08-31T10:14:06;3.60;;;1.43;;
8337;SDS011;4206;48.634;9.516;2023-08-31T10:16:34;4.13;;;1.90;;
8337;SDS011;4206;48.634;9.516;2023-08-31T10:19:03;9.53;;;1.63;;
8337;SDS011;4206;48.634;9.516;2023-08-31T10:21:31;3.20;;;1.67;;
8337;SDS011;4206;48.634;9.516;2023-08-31T10:24:00;2.63;;;1.50;;
8337;SDS011;4206;48.634;9.516;2023-08-31T10:26:28;6.60;;;2.07;;
8337;SDS011;4206;48.634;9.516;2023-08-31T10:28:56;4.43;;;1.90;;
8337;SDS011;4206;48.634;9.516;2023-08-31T10:31:23;3.93;;;2.37;;
8337;SDS011;4206;48.634;9.516;2023-08-31T10:33:59;5.03;;;1.73;;
8337;SDS011;4206;48.634;9.516;2023-08-31T10:36:34;3.40;;;1.70;;
8337;SDS011;4206;48.634;9.516;2023-08-31T10:41:37;2.63;;;1.70;;
8337;SDS011;4206;48.634;9.516;2023-08-31T10:44:20;3.07;;;1.60;;
8337;SDS011;4206;48.634;9.516;2023-08-31T10:46:48;2.77;;;1.83;;
8337;SDS011;4206;48.634;9.516;2023-08-31T10:49:17;5.37;;;1.80;;
8337;SDS011;4206;48.634;9.516;2023-08-31T10:51:46;4.27;;;1.40;;
8337;SDS011;4206;48.634;9.516;2023-08-31T10:59:41;3.27;;;1.50;;
8337;SDS011;4206;48.634;9.516;2023-08-31T11:02:08;5.83;;;2.00;;
8337;SDS011;4206;48.634;9.516;2023-08-31T11:07:23;2.67;;;1.80;;
8337;SDS011;4206;48.634;9.516;2023-08-31T11:09:50;2.80;;;1.07;;
8337;SDS011;4206;48.634;9.516;2023-08-31T11:12:21;4.90;;;1.63;;
8337;SDS011;4206;48.634;9.516;2023-08-31T11:14:49;3.60;;;1.60;;
8337;SDS011;4206;48.634;9.516;2023-08-31T11:17:17;3.93;;;1.50;;
8337;SDS011;4206;48.634;9.516;2023-08-31T11:19:44;6.13;;;1.83;;
8337;SDS011;4206;48.634;9.516;2023-08-31T11:22:12;5.30;;;1.83;;
8337;SDS011;4206;48.634;9.516;2023-08-31T11:24:39;6.80;;;2.00;;
8337;SDS011;4206;48.634;9.516;2023-08-31T11:27:07;3.43;;;1.57;;
8337;SDS011;4206;48.634;9.516;2023-08-31T11:29:38;3.17;;;1.53;;
8337;SDS011;4206;48.634;9.516;2023-08-31T11:32:05;2.80;;;1.63;;
8337;SDS011;4206;48.634;9.516;2023-08-31T11:34:32;7.03;;;1.40;;
8337;SDS011;4206;48.634;9.516;2023-08-31T11:37:00;2.53;;;1.43;;
8337;SDS011;4206;48.634;9.516;2023-08-31T11:39:27;4.60;;;2.00;;
8337;SDS011;4206;48.634;9.516;2023-08-31T11:41:54;6.80;;;1.60;;
8337;SDS011;4206;48.634;9.516;2023-08-31T11:44:22;3.97;;;1.40;;
8337;SDS011;4206;48.634;9.516;2023-08-31T11:46:49;4.60;;;1.77;;
8337;SDS011;4206;48.634;9.516;2023-08-31T11:49:17;5.77;;;1.90;;
8337;SDS011;4206;48.634;9.516;2023-08-31T11:51:46;3.30;;;1.57;;
8337;SDS011;4206;48.634;9.516;2023-08-31T11:54:17;3.87;;;1.80;;
8337;SDS011;4206;48.634;9.516;2023-08-31T11:56:45;3.93;;;1.80;;
8337;SDS011;4206;48.634;9.516;2023-08-31T11:59:18;5.07;;;1.63;;
8337;SDS011;4206;48.634;9.516;2023-08-31T12:01:46;3.00;;;1.47;;
8337;SDS011;4206;48.634;9.516;2023-08-31T12:04:17;2.70;;;1.77;;
8337;SDS011;4206;48.634;9.516;2023-08-31T12:06:47;5.10;;;2.70;;
8337;SDS011;4206;48.634;9.516;2023-08-31T12:09:14;3.33;;;1.50;;
8337;SDS011;4206;48.634;9.516;2023-08-31T12:11:42;4.60;;;1.60;;
8337;SDS011;4206;48.634;9.516;2023-08-31T12:14:18;3.47;;;1.40;;
8337;SDS011;4206;48.634;9.516;2023-08-31T12:16:45;3.93;;;2.07;;
8337;SDS011;4206;48.634;9.516;2023-08-31T12:19:13;5.20;;;2.00;;
8337;SDS011;4206;48.634;9.516;2023-08-31T12:21:41;3.67;;;1.87;;
8337;SDS011;4206;48.634;9.516;2023-08-31T12:24:09;2.83;;;1.50;;
8337;SDS011;4206;48.634;9.516;2023-08-31T12:26:37;3.80;;;1.27;;
8337;SDS011;4206;48.634;9.516;2023-08-31T12:29:04;6.63;;;2.00;;
8337;SDS011;4206;48.634;9.516;2023-08-31T12:31:32;2.80;;;1.43;;
8337;SDS011;4206;48.634;9.516;2023-08-31T12:33:59;3.97;;;1.80;;
8337;SDS011;4206;48.634;9.516;2023-08-31T12:36:30;5.40;;;1.87;;
8337;SDS011;4206;48.634;9.516;2023-08-31T12:38:58;3.00;;;1.60;;
8337;SDS011;4206;48.634;9.516;2023-08-31T12:41:27;5.10;;;1.80;;
8337;SDS011;4206;48.634;9.516;2023-08-31T12:43:55;3.70;;;1.80;;
8337;SDS011;4206;48.634;9.516;2023-08-31T12:46:24;5.73;;;1.30;;
8337;SDS011;4206;48.634;9.516;2023-08-31T12:48:52;2.97;;;1.50;;
8337;SDS011;4206;48.634;9.516;2023-08-31T12:51:20;4.50;;;1.80;;
8337;SDS011;4206;48.634;9.516;2023-08-31T12:53:47;3.40;;;1.40;;
8337;SDS011;4206;48.634;9.516;2023-08-31T12:56:14;4.20;;;1.80;;
8337;SDS011;4206;48.634;9.516;2023-08-31T12:58:49;4.10;;;1.90;;
8337;SDS011;4206;48.634;9.516;2023-08-31T13:01:16;2.60;;;2.07;;
8337;SDS011;4206;48.634;9.516;2023-08-31T13:03:44;5.47;;;2.00;;
8337;SDS011;4206;48.634;9.516;2023-08-31T13:06:11;4.10;;;1.70;;
8337;SDS011;4206;48.634;9.516;2023-08-31T13:08:39;2.17;;;1.70;;
8337;SDS011;4206;48.634;9.516;2023-08-31T13:11:09;2.93;;;1.97;;
8337;SDS011;4206;48.634;9.516;2023-08-31T13:13:37;2.40;;;1.97;;
8337;SDS011;4206;48.634;9.516;2023-08-31T13:16:04;2.73;;;1.47;;
8337;SDS011;4206;48.634;9.516;2023-08-31T13:18:32;3.63;;;2.00;;
8337;SDS011;4206;48.634;9.516;2023-08-31T13:20:59;3.80;;;1.60;;
8337;SDS011;4206;48.634;9.516;2023-08-31T13:23:28;2.73;;;1.67;;
8337;SDS011;4206;48.634;9.516;2023-08-31T13:25:55;2.37;;;1.70;;
8337;SDS011;4206;48.634;9.516;2023-08-31T13:28:22;4.93;;;1.90;;
8337;SDS011;4206;48.634;9.516;2023-08-31T13:30:54;3.27;;;1.87;;
8337;SDS011;4206;48.634;9.516;2023-08-31T13:33:23;3.40;;;1.60;;
8337;SDS011;4206;48.634;9.516;2023-08-31T13:35:50;6.90;;;2.00;;
8337;SDS011;4206;48.634;9.516;2023-08-31T13:38:18;3.33;;;1.90;;
8337;SDS011;4206;48.634;9.516;2023-08-31T13:40:45;3.70;;;1.50;;
8337;SDS011;4206;48.634;9.516;2023-08-31T13:43:13;7.27;;;1.97;;
8337;SDS011;4206;48.634;9.516;2023-08-31T13:45:40;2.60;;;1.70;;
8337;SDS011;4206;48.634;9.516;2023-08-31T13:48:07;4.40;;;1.57;;
8337;SDS011;4206;48.634;9.516;2023-08-31T13:50:34;3.77;;;1.77;;
8337;SDS011;4206;48.634;9.516;2023-08-31T13:53:02;3.30;;;1.60;;
8337;SDS011;4206;48.634;9.516;2023-08-31T13:55:29;5.50;;;1.63;;
8337;SDS011;4206;48.634;9.516;2023-08-31T13:58:03;2.10;;;1.50;;
8337;SDS011;4206;48.634;9.516;2023-08-31T14:00:31;2.63;;;1.50;;
8337;SDS011;4206;48.634;9.516;2023-08-31T14:02:58;2.83;;;1.67;;
8337;SDS011;4206;48.634;9.516;2023-08-31T14:05:29;7.83;;;1.70;;
8337;SDS011;4206;48.634;9.516;2023-08-31T14:07:57;6.30;;;1.80;;
8337;SDS011;4206;48.634;9.516;2023-08-31T14:10:24;3.97;;;1.50;;
8337;SDS011;4206;48.634;9.516;2023-08-31T14:12:52;3.23;;;1.70;;
8337;SDS011;4206;48.634;9.516;2023-08-31T14:15:19;8.03;;;2.20;;
8337;SDS011;4206;48.634;9.516;2023-08-31T14:17:47;2.73;;;1.53;;
8337;SDS011;4206;48.634;9.516;2023-08-31T14:20:17;3.17;;;1.37;;
8337;SDS011;4206;48.634;9.516;2023-08-31T14:22:45;2.90;;;1.47;;
8337;SDS011;4206;48.634;9.516;2023-08-31T14:25:12;3.37;;;1.57;;
8337;SDS011;4206;48.634;9.516;2023-08-31T14:27:40;5.27;;;2.10;;
8337;SDS011;4206;48.634;9.516;2023-08-31T14:30:07;3.97;;;1.80;;
8337;SDS011;4206;48.634;9.516;2023-08-31T14:32:34;4.73;;;1.77;;
8337;SDS011;4206;48.634;9.516;2023-08-31T14:35:02;3.07;;;1.40;;
8337;SDS011;4206;48.634;9.516;2023-08-31T14:37:30;4.73;;;1.93;;
8337;SDS011;4206;48.634;9.516;2023-08-31T14:39:58;5.10;;;1.93;;
8337;SDS011;4206;48.634;9.516;2023-08-31T14:42:25;4.87;;;1.80;;
8337;SDS011;4206;48.634;9.516;2023-08-31T14:44:52;5.73;;;1.97;;
8337;SDS011;4206;48.634;9.516;2023-08-31T14:47:19;5.30;;;1.87;;
8337;SDS011;4206;48.634;9.516;2023-08-31T14:49:47;12.07;;;2.23;;
8337;SDS011;4206;48.634;9.516;2023-08-31T14:52:14;4.73;;;1.70;;
8337;SDS011;4206;48.634;9.516;2023-08-31T14:54:41;3.50;;;1.30;;
8337;SDS011;4206;48.634;9.516;2023-08-31T14:57:08;6.23;;;1.90;;
8337;SDS011;4206;48.634;9.516;2023-08-31T14:59:36;7.73;;;1.67;;
8337;SDS011;4206;48.634;9.516;2023-08-31T15:02:03;5.07;;;1.70;;
8337;SDS011;4206;48.634;9.516;2023-08-31T15:04:32;4.60;;;1.50;;
8337;SDS011;4206;48.634;9.516;2023-08-31T15:06:59;6.67;;;2.47;;
8337;SDS011;4206;48.634;9.516;2023-08-31T15:09:26;6.67;;;2.13;;
8337;SDS011;4206;48.634;9.516;2023-08-31T15:11:54;10.83;;;1.93;;
8337;SDS011;4206;48.634;9.516;2023-08-31T15:14:21;4.70;;;1.60;;
8337;SDS011;4206;48.634;9.516;2023-08-31T15:16:48;3.73;;;1.40;;
8337;SDS011;4206;48.634;9.516;2023-08-31T15:19:16;6.53;;;1.37;;
8337;SDS011;4206;48.634;9.516;2023-08-31T15:21:43;3.67;;;1.57;;
8337;SDS011;4206;48.634;9.516;2023-08-31T15:24:10;5.37;;;1.60;;
8337;SDS011;4206;48.634;9.516;2023-08-31T15:26:38;4.50;;;1.77;;
8337;SDS011;4206;48.634;9.516;2023-08-31T15:29:05;3.93;;;1.70;;
8337;SDS011;4206;48.634;9.516;2023-08-31T15:31:32;2.53;;;1.40;;
8337;SDS011;4206;48.634;9.516;2023-08-31T15:34:00;6.53;;;1.57;;
8337;SDS011;4206;48.634;9.516;2023-08-31T15:36:27;3.77;;;1.40;;
8337;SDS011;4206;48.634;9.516;2023-08-31T15:38:54;8.10;;;2.30;;
8337;SDS011;4206;48.634;9.516;2023-08-31T15:41:22;4.23;;;1.87;;
8337;SDS011;4206;48.634;9.516;2023-08-31T15:43:49;4.83;;;1.67;;